Time,TemperatureF,DewpointF,PressureIn,WindDirection,WindDirectionDegrees,WindSpeedMPH,WindSpeedGustMPH,Humidity,HourlyPrecipIn,Conditions,Clouds,dailyrainin,SoftwareType,DateUTC
2013-02-20 00:10:00,39.7,23.0,30.16,WNW,295,1.0,-999.0,51,-99.99,,,0.00,weatherlink.com 1.10,2013-02-20 05:10:00,
2013-02-20 00:25:00,39.1,23.0,30.17,NNW,335,0.0,-999.0,52,-99.99,,,0.00,weatherlink.com 1.10,2013-02-20 05:25:00,
2013-02-20 00:40:00,38.4,22.0,30.17,WNW,300,1.0,-999.0,51,-99.99,,,0.00,weatherlink.com 1.10,2013-02-20 05:40:00,
2013-02-20 00:55:00,38.5,21.0,30.17,WNW,297,4.0,-999.0,50,-99.99,,,0.00,weatherlink.com 1.10,2013-02-20 05:55:00,
2013-02-20 01:10:00,38.6,21.0,30.17,West,281,2.0,-999.0,50,-99.99,,,0.00,weatherlink.com 1.10,2013-02-20 06:10:00,
2013-02-20 01:25:00,38.3,21.0,30.17,West,274,4.0,-999.0,50,-99.99,,,0.00,weatherlink.com 1.10,2013-02-20 06:25:00,
2013-02-20 01:40:00,38.0,21.0,30.18,NNW,339,13.0,-999.0,50,-99.99,,,0.00,weatherlink.com 1.10,2013-02-20 06:40:00,
2013-02-20 01:55:00,37.7,21.0,30.18,NNW,333,5.0,-999.0,51,-99.99,,,0.00,weatherlink.com 1.10,2013-02-20 06:55:00,
2013-02-20 02:10:00,37.3,21.0,30.18,North,353,5.0,-999.0,52,-99.99,,,0.00,weatherlink.com 1.10,2013-02-20 07:10:00,
2013-02-20 02:25:00,37.0,21.0,30.17,WNW,291,5.0,-999.0,53,-99.99,,,0.00,weatherlink.com 1.10,2013-02-20 07:25:00,
2013-02-20 02:40:00,36.4,21.0,30.18,NNW,346,9.0,-999.0,54,-99.99,,,0.00,weatherlink.com 1.10,2013-02-20 07:40:00,
2013-02-20 02:55:00,36.1,21.0,30.17,North,360,2.0,-999.0,54,-99.99,,,0.00,weatherlink.com 1.10,2013-02-20 07:55:00,
2013-02-20 03:10:00,35.9,21.0,30.17,NNW,341,8.0,-999.0,55,-99.99,,,0.00,weatherlink.com 1.10,2013-02-20 08:10:00,
2013-02-20 03:25:00,35.6,21.0,30.17,NNW,346,11.0,-999.0,55,-99.99,,,0.00,weatherlink.com 1.10,2013-02-20 08:25:00,
2013-02-20 03:40:00,35.4,21.0,30.16,WNW,285,5.0,-999.0,56,-99.99,,,0.00,weatherlink.com 1.10,2013-02-20 08:40:00,
2013-02-20 03:55:00,35.0,21.0,30.15,WNW,303,5.0,-999.0,56,-99.99,,,0.00,weatherlink.com 1.10,2013-02-20 08:55:00,
2013-02-20 04:10:00,34.5,21.0,30.14,NNW,333,5.0,-999.0,57,-99.99,,,0.00,weatherlink.com 1.10,2013-02-20 09:10:00,
2013-02-20 04:25:00,34.1,20.0,30.15,NW,324,7.0,-999.0,57,-99.99,,,0.00,weatherlink.com 1.10,2013-02-20 09:25:00,
2013-02-20 04:40:00,33.8,20.0,30.15,WNW,294,2.0,-999.0,58,-99.99,,,0.00,weatherlink.com 1.10,2013-02-20 09:40:00,
2013-02-20 04:55:00,33.6,20.0,30.15,North,350,1.0,-999.0,58,-99.99,,,0.00,weatherlink.com 1.10,2013-02-20 09:55:00,
2013-02-20 05:11:00,33.2,20.0,30.15,NNW,341,1.0,-999.0,59,-99.99,,,0.00,weatherlink.com 1.10,2013-02-20 10:11:00,
2013-02-20 05:26:00,32.8,21.0,30.14,NNW,341,2.0,-999.0,63,-99.99,,,0.00,weatherlink.com 1.10,2013-02-20 10:26:00,
2013-02-20 05:41:00,32.0,23.0,30.15,NNW,343,0.0,-999.0,70,-99.99,,,0.00,weatherlink.com 1.10,2013-02-20 10:41:00,
2013-02-20 05:56:00,31.5,22.0,30.16,NNW,343,0.0,-999.0,68,-99.99,,,0.00,weatherlink.com 1.10,2013-02-20 10:56:00,
2013-02-20 06:11:00,31.3,21.0,30.16,NNW,344,0.0,-999.0,66,-99.99,,,0.00,weatherlink.com 1.10,2013-02-20 11:11:00,
2013-02-20 06:26:00,31.3,23.0,30.16,NNW,329,0.0,-999.0,71,-99.99,,,0.00,weatherlink.com 1.10,2013-02-20 11:26:00,
2013-02-20 06:41:00,30.6,22.0,30.18,NNW,329,0.0,-999.0,71,-99.99,,,0.00,weatherlink.com 1.10,2013-02-20 11:41:00,
2013-02-20 06:56:00,30.9,21.0,30.17,North,349,1.0,-999.0,67,-99.99,,,0.00,weatherlink.com 1.10,2013-02-20 11:56:00,
2013-02-20 07:11:00,31.0,22.0,30.18,WNW,298,0.0,-999.0,69,-99.99,,,0.00,weatherlink.com 1.10,2013-02-20 12:11:00,
2013-02-20 07:26:00,31.4,21.0,30.19,WNW,287,0.0,-999.0,65,-99.99,,,0.00,weatherlink.com 1.10,2013-02-20 12:26:00,
2013-02-20 07:41:00,32.1,21.0,30.19,NW,310,7.0,-999.0,63,-99.99,,,0.00,weatherlink.com 1.10,2013-02-20 12:41:00,
2013-02-20 07:56:00,32.6,21.0,30.19,WNW,282,0.0,-999.0,62,-99.99,,,0.00,weatherlink.com 1.10,2013-02-20 12:56:00,
2013-02-20 08:11:00,32.9,21.0,30.21,WSW,240,0.0,-999.0,61,-99.99,,,0.00,weatherlink.com 1.10,2013-02-20 13:11:00,
2013-02-20 08:26:00,33.9,22.0,30.22,WNW,293,0.0,-999.0,61,-99.99,,,0.00,weatherlink.com 1.10,2013-02-20 13:26:00,
2013-02-20 08:41:00,35.0,20.0,30.22,WNW,297,6.0,-999.0,55,-99.99,,,0.00,weatherlink.com 1.10,2013-02-20 13:41:00,
2013-02-20 08:56:00,36.1,20.0,30.21,NW,318,1.0,-999.0,53,-99.99,,,0.00,weatherlink.com 1.10,2013-02-20 13:56:00,
2013-02-20 09:11:00,37.2,20.0,30.22,WNW,285,1.0,-999.0,50,-99.99,,,0.00,weatherlink.com 1.10,2013-02-20 14:11:00,
2013-02-20 09:26:00,37.8,20.0,30.22,WNW,302,5.0,-999.0,48,-99.99,,,0.00,weatherlink.com 1.10,2013-02-20 14:26:00,
2013-02-20 09:41:00,38.8,18.0,30.22,North,359,9.0,-999.0,44,-99.99,,,0.00,weatherlink.com 1.10,2013-02-20 14:41:00,
2013-02-20 09:56:00,40.1,18.0,30.22,WNW,298,13.0,-999.0,41,-99.99,,,0.00,weatherlink.com 1.10,2013-02-20 14:56:00,
2013-02-20 10:11:00,41.6,19.0,30.23,NW,312,9.0,-999.0,40,-99.99,,,0.00,weatherlink.com 1.10,2013-02-20 15:11:00,
2013-02-20 10:26:00,40.6,15.0,30.22,WNW,294,4.0,-999.0,36,-99.99,,,0.00,weatherlink.com 1.10,2013-02-20 15:26:00,
2013-02-20 10:41:00,42.5,16.0,30.21,WSW,246,3.0,-999.0,35,-99.99,,,0.00,weatherlink.com 1.10,2013-02-20 15:41:00,
2013-02-20 10:56:00,43.5,16.0,30.20,WNW,300,2.0,-999.0,33,-99.99,,,0.00,weatherlink.com 1.10,2013-02-20 15:56:00,
2013-02-20 11:11:00,45.1,16.0,30.19,NNW,329,8.0,-999.0,31,-99.99,,,0.00,weatherlink.com 1.10,2013-02-20 16:11:00,
2013-02-20 11:26:00,45.2,15.0,30.19,NNW,347,10.0,-999.0,30,-99.99,,,0.00,weatherlink.com 1.10,2013-02-20 16:26:00,
2013-02-20 11:41:00,47.0,18.0,30.19,SSW,213,8.0,-999.0,31,-99.99,,,0.00,weatherlink.com 1.10,2013-02-20 16:41:00,
2013-02-20 11:56:00,47.4,17.0,30.20,WNW,283,7.0,-999.0,30,-99.99,,,0.00,weatherlink.com 1.10,2013-02-20 16:56:00,
2013-02-20 12:11:00,47.8,17.0,30.20,NW,316,2.0,-999.0,29,-99.99,,,0.00,weatherlink.com 1.10,2013-02-20 17:11:00,
2013-02-20 12:26:00,48.0,15.0,30.19,North,9,9.0,-999.0,27,-99.99,,,0.00,weatherlink.com 1.10,2013-02-20 17:26:00,
2013-02-20 12:42:00,49.2,17.0,30.19,West,276,4.0,-999.0,28,-99.99,,,0.00,weatherlink.com 1.10,2013-02-20 17:42:00,
2013-02-20 12:57:00,48.0,17.0,30.18,NNE,18,3.0,-999.0,29,-99.99,,,0.00,weatherlink.com 1.10,2013-02-20 17:57:00,
2013-02-20 13:12:00,48.1,16.0,30.18,NNE,25,11.0,-999.0,28,-99.99,,,0.00,weatherlink.com 1.10,2013-02-20 18:12:00,
2013-02-20 13:27:00,47.4,16.0,30.17,West,272,2.0,-999.0,29,-99.99,,,0.00,weatherlink.com 1.10,2013-02-20 18:27:00,
2013-02-20 13:42:00,49.3,19.0,30.17,North,355,4.0,-999.0,30,-99.99,,,0.00,weatherlink.com 1.10,2013-02-20 18:42:00,
2013-02-20 13:57:00,49.7,17.0,30.16,NW,320,6.0,-999.0,27,-99.99,,,0.00,weatherlink.com 1.10,2013-02-20 18:57:00,
2013-02-20 14:12:00,48.6,17.0,30.16,NW,308,6.0,-999.0,28,-99.99,,,0.00,weatherlink.com 1.10,2013-02-20 19:12:00,
2013-02-20 14:27:00,48.2,15.0,30.15,NNE,30,10.0,-999.0,27,-99.99,,,0.00,weatherlink.com 1.10,2013-02-20 19:27:00,
2013-02-20 14:42:00,48.8,16.0,30.15,WNW,300,4.0,-999.0,27,-99.99,,,0.00,weatherlink.com 1.10,2013-02-20 19:42:00,
2013-02-20 14:57:00,49.5,16.0,30.16,WNW,300,13.0,-999.0,26,-99.99,,,0.00,weatherlink.com 1.10,2013-02-20 19:57:00,
2013-02-20 15:12:00,49.0,14.0,30.17,NNE,27,9.0,-999.0,25,-99.99,,,0.00,weatherlink.com 1.10,2013-02-20 20:12:00,
2013-02-20 15:27:00,48.2,13.0,30.17,NW,317,5.0,-999.0,24,-99.99,,,0.00,weatherlink.com 1.10,2013-02-20 20:27:00,
2013-02-20 15:42:00,47.8,14.0,30.18,NW,320,1.0,-999.0,26,-99.99,,,0.00,weatherlink.com 1.10,2013-02-20 20:42:00,
2013-02-20 15:57:00,47.2,15.0,30.18,NW,304,9.0,-999.0,27,-99.99,,,0.00,weatherlink.com 1.10,2013-02-20 20:57:00,
2013-02-20 16:12:00,46.7,13.0,30.19,NW,310,8.0,-999.0,26,-99.99,,,0.00,weatherlink.com 1.10,2013-02-20 21:12:00,
2013-02-20 16:27:00,46.0,13.0,30.20,NW,322,9.0,-999.0,26,-99.99,,,0.00,weatherlink.com 1.10,2013-02-20 21:27:00,
2013-02-20 16:42:00,45.7,12.0,30.21,South,189,4.0,-999.0,25,-99.99,,,0.00,weatherlink.com 1.10,2013-02-20 21:42:00,
2013-02-20 16:57:00,45.3,11.0,30.21,NW,320,9.0,-999.0,25,-99.99,,,0.00,weatherlink.com 1.10,2013-02-20 21:57:00,
2013-02-20 17:12:00,45.0,14.0,30.21,NNE,33,3.0,-999.0,28,-99.99,,,0.00,weatherlink.com 1.10,2013-02-20 22:12:00,
2013-02-20 17:27:00,44.7,12.0,30.21,WNW,285,11.0,-999.0,27,-99.99,,,0.00,weatherlink.com 1.10,2013-02-20 22:27:00,
2013-02-20 17:42:00,44.2,19.0,30.19,NNW,346,4.0,-999.0,36,-99.99,,,0.00,weatherlink.com 1.10,2013-02-20 22:42:00,
2013-02-20 17:57:00,42.8,19.0,30.16,NE,42,5.0,-999.0,38,-99.99,,,0.00,weatherlink.com 1.10,2013-02-20 22:57:00,
2013-02-20 18:12:00,42.3,19.0,30.15,WNW,297,2.0,-999.0,40,-99.99,,,0.00,weatherlink.com 1.10,2013-02-20 23:12:00,
2013-02-20 18:27:00,42.0,20.0,30.14,North,356,5.0,-999.0,42,-99.99,,,0.00,weatherlink.com 1.10,2013-02-20 23:27:00,
2013-02-20 18:42:00,41.6,20.0,30.14,NNW,347,1.0,-999.0,42,-99.99,,,0.00,weatherlink.com 1.10,2013-02-20 23:42:00,
2013-02-20 18:57:00,41.2,19.0,30.13,NNE,17,1.0,-999.0,41,-99.99,,,0.00,weatherlink.com 1.10,2013-02-20 23:57:00,
2013-02-20 19:12:00,41.1,18.0,30.14,NE,37,1.0,-999.0,39,-99.99,,,0.00,weatherlink.com 1.10,2013-02-21 00:12:00,
2013-02-20 19:27:00,41.0,16.0,30.15,North,350,9.0,-999.0,37,-99.99,,,0.00,weatherlink.com 1.10,2013-02-21 00:27:00,
2013-02-20 19:42:00,40.5,17.0,30.14,NNW,328,10.0,-999.0,38,-99.99,,,0.00,weatherlink.com 1.10,2013-02-21 00:42:00,
2013-02-20 19:57:00,40.1,16.0,30.14,North,355,1.0,-999.0,38,-99.99,,,0.00,weatherlink.com 1.10,2013-02-21 00:57:00,
2013-02-20 20:12:00,40.1,16.0,30.15,North,351,1.0,-999.0,38,-99.99,,,0.00,weatherlink.com 1.10,2013-02-21 01:12:00,
2013-02-20 20:27:00,40.2,16.0,30.15,NE,36,0.0,-999.0,38,-99.99,,,0.00,weatherlink.com 1.10,2013-02-21 01:27:00,
2013-02-20 20:42:00,40.1,16.0,30.15,WNW,299,1.0,-999.0,38,-99.99,,,0.00,weatherlink.com 1.10,2013-02-21 01:42:00,
2013-02-20 20:57:00,40.0,18.0,30.15,WNW,283,0.0,-999.0,41,-99.99,,,0.00,weatherlink.com 1.10,2013-02-21 01:57:00,
2013-02-20 21:12:00,39.6,18.0,30.15,WNW,283,1.0,-999.0,42,-99.99,,,0.00,weatherlink.com 1.10,2013-02-21 02:12:00,
2013-02-20 21:27:00,39.1,19.0,30.15,WNW,283,0.0,-999.0,44,-99.99,,,0.00,weatherlink.com 1.10,2013-02-21 02:27:00,
2013-02-20 21:42:00,39.1,18.0,30.16,WNW,294,1.0,-999.0,42,-99.99,,,0.00,weatherlink.com 1.10,2013-02-21 02:42:00,
2013-02-20 21:57:00,39.2,17.0,30.16,NW,305,1.0,-999.0,41,-99.99,,,0.00,weatherlink.com 1.10,2013-02-21 02:57:00,
2013-02-20 22:12:00,39.3,17.0,30.16,NW,305,2.0,-999.0,41,-99.99,,,0.00,weatherlink.com 1.10,2013-02-21 03:12:00,
2013-02-20 22:27:00,39.3,18.0,30.16,West,281,2.0,-999.0,42,-99.99,,,0.00,weatherlink.com 1.10,2013-02-21 03:27:00,
2013-02-20 22:42:00,39.1,18.0,30.17,West,276,5.0,-999.0,43,-99.99,,,0.00,weatherlink.com 1.10,2013-02-21 03:42:00,
2013-02-20 23:12:00,38.8,18.0,30.16,WNW,297,2.0,-999.0,44,-99.99,,,0.00,weatherlink.com 1.10,2013-02-21 04:12:00,
2013-02-20 23:27:00,38.8,19.0,30.16,WNW,295,4.0,-999.0,46,-99.99,,,0.00,weatherlink.com 1.10,2013-02-21 04:27:00,
2013-02-20 23:42:00,38.7,19.0,30.16,NW,307,7.0,-999.0,46,-99.99,,,0.00,weatherlink.com 1.10,2013-02-21 04:42:00,
2013-02-20 23:57:00,38.5,19.0,30.16,West,270,1.0,-999.0,46,-99.99,,,0.00,weatherlink.com 1.10,2013-02-21 04:57:00,